Time;durP1;ratioP1;P1;durP2;ratioP2;P2;SDS_P1;SDS_P2;PMS_P1;PMS_P2;Temp;Humidity;BMP_temperature;BMP_pressure;BME280_temperature;BME280_humidity;BME280_pressure;Samples;Min_cycle;Max_cycle;Signal;HPM_P1;HPM_P2
2021/05/09 00:00:46;;;;;;;1.10;1.00;;;16.50;66.80;;;;;;4995363;28;20373;-66
2021/05/09 00:03:11;;;;;;;3.65;1.55;;;16.40;66.80;;;;;;4995040;28;20054;-67
2021/05/09 00:05:37;;;;;;;1.30;1.10;;;16.40;66.80;;;;;;4995225;28;20053;-67
2021/05/09 00:08:03;;;;;;;1.02;0.90;;;16.30;66.80;;;;;;4995426;28;20049;-66
2021/05/09 00:10:28;;;;;;;1.30;1.05;;;16.50;66.80;;;;;;4995418;28;20617;-66
2021/05/09 00:12:54;;;;;;;1.67;0.90;;;16.40;66.80;;;;;;4995033;28;20023;-66
2021/05/09 00:15:23;;;;;;;2.13;1.30;;;16.30;66.80;;;;;;4995037;28;20510;-66
2021/05/09 00:17:49;;;;;;;1.35;1.00;;;16.40;66.90;;;;;;4977554;28;20499;-66
2021/05/09 00:20:15;;;;;;;0.95;0.95;;;16.30;66.80;;;;;;4994879;28;20110;-67
2021/05/09 00:22:40;;;;;;;2.10;1.13;;;16.40;66.90;;;;;;4994765;28;20020;-67
2021/05/09 00:25:06;;;;;;;1.17;1.08;;;16.50;66.90;;;;;;4977367;28;20085;-67
2021/05/09 00:27:33;;;;;;;1.20;1.10;;;16.40;66.80;;;;;;4994683;28;20492;-66
2021/05/09 00:29:58;;;;;;;1.35;0.95;;;16.40;66.80;;;;;;4994539;28;20101;-66
2021/05/09 00:32:24;;;;;;;1.63;1.10;;;16.60;67.00;;;;;;4994688;28;20109;-66
2021/05/09 00:34:50;;;;;;;1.48;1.23;;;16.10;66.70;;;;;;4994540;28;20034;-66
2021/05/09 00:37:16;;;;;;;1.27;1.00;;;16.20;66.60;;;;;;4994616;28;20025;-66
2021/05/09 00:39:41;;;;;;;1.20;1.10;;;16.30;66.80;;;;;;4977029;28;20031;-66
2021/05/09 00:42:07;;;;;;;1.25;1.10;;;16.60;67.70;;;;;;4994045;28;20080;-66
2021/05/09 00:44:34;;;;;;;1.33;1.10;;;16.30;66.80;;;;;;4993126;28;20034;-66
2021/05/09 00:47:08;;;;;;;1.52;1.00;;;16.40;66.90;;;;;;4976902;28;20026;-67
2021/05/09 00:49:35;;;;;;;1.10;1.00;;;16.30;66.90;;;;;;4994362;28;20018;-66
2021/05/09 00:52:01;;;;;;;1.90;1.15;;;16.10;92.40;;;;;;4994243;28;20026;-66
2021/05/09 00:54:30;;;;;;;1.77;1.25;;;16.30;66.80;;;;;;4994153;28;20074;-66
2021/05/09 00:56:57;;;;;;;1.05;0.80;;;16.20;66.90;;;;;;4994112;28;20360;-67
2021/05/09 00:59:24;;;;;;;1.23;1.00;;;16.10;66.80;;;;;;4994096;28;20033;-66
2021/05/09 01:01:51;;;;;;;2.80;1.20;;;16.30;66.80;;;;;;4994351;28;20088;-66
2021/05/09 01:04:17;;;;;;;1.10;1.00;;;16.50;67.00;;;;;;4993941;28;20088;-66
2021/05/09 01:06:44;;;;;;;1.58;1.13;;;16.40;66.90;;;;;;4993993;28;20057;-66
2021/05/09 01:09:10;;;;;;;1.17;1.08;;;16.20;66.80;;;;;;4993934;28;20353;-66
2021/05/09 01:11:37;;;;;;;1.42;1.08;;;16.20;66.80;;;;;;4994217;28;20025;-66
2021/05/09 01:14:04;;;;;;;3.10;1.13;;;16.20;66.90;;;;;;4976343;28;20038;-66
2021/05/09 01:16:29;;;;;;;2.47;0.80;;;16.30;66.90;;;;;;4993785;28;20029;-67
2021/05/09 01:18:55;;;;;;;1.95;1.02;;;16.80;67.10;;;;;;4993768;28;20026;-67
2021/05/09 01:21:21;;;;;;;1.15;1.05;;;16.30;66.80;;;;;;4993753;28;20387;-66
2021/05/09 01:23:46;;;;;;;1.25;1.10;;;16.20;66.70;;;;;;4993669;28;20042;-66
2021/05/09 01:26:12;;;;;;;1.27;1.10;;;16.30;66.80;;;;;;4993964;28;20019;-66
2021/05/09 01:28:38;;;;;;;1.30;1.10;;;17.00;67.30;;;;;;4993604;28;20368;-67
2021/05/09 01:31:04;;;;;;;1.88;1.20;;;16.40;67.00;;;;;;4993496;28;20113;-66
2021/05/09 01:33:29;;;;;;;1.75;1.02;;;16.20;66.80;;;;;;4993692;28;20089;-66
2021/05/09 01:35:55;;;;;;;1.48;1.15;;;16.20;66.80;;;;;;4993764;28;20021;-66
2021/05/09 01:38:21;;;;;;;1.27;0.98;;;16.30;66.90;;;;;;4975981;28;20387;-66
2021/05/09 01:40:47;;;;;;;1.48;1.05;;;16.20;66.90;;;;;;4993468;28;20114;-66
2021/05/09 01:43:12;;;;;;;2.38;1.13;;;16.10;66.80;;;;;;4993455;28;20475;-66
2021/05/09 01:45:38;;;;;;;2.08;1.05;;;16.20;66.80;;;;;;4993698;28;20057;-66
2021/05/09 01:48:04;;;;;;;1.20;0.95;;;16.30;66.90;;;;;;4993318;28;20101;-66
2021/05/09 01:50:30;;;;;;;1.02;1.02;;;16.30;66.80;;;;;;4993213;28;20033;-66
2021/05/09 01:52:55;;;;;;;1.17;1.08;;;16.80;67.20;;;;;;4993436;28;20415;-66
2021/05/09 01:55:23;;;;;;;1.38;0.93;;;16.40;66.90;;;;;;4992726;28;20495;-66
2021/05/09 01:57:48;;;;;;;2.00;1.30;;;16.10;66.80;;;;;;4993560;28;20094;-66
2021/05/09 02:00:19;;;;;;;1.17;1.00;;;16.10;66.70;;;;;;4993215;28;20113;-66
2021/05/09 02:02:46;;;;;;;1.63;1.08;;;16.20;66.30;;;;;;4993210;28;20065;-66
2021/05/09 02:05:13;;;;;;;1.08;0.90;;;16.10;66.60;;;;;;4992993;28;20069;-66
2021/05/09 02:07:39;;;;;;;1.40;1.30;;;16.20;66.70;;;;;;4993156;28;20037;-66
2021/05/09 02:10:09;;;;;;;1.42;0.80;;;16.10;66.60;;;;;;4975733;28;20018;-66
2021/05/09 02:12:35;;;;;;;2.08;0.90;;;16.20;66.40;;;;;;4993152;28;20028;-67
2021/05/09 02:15:01;;;;;;;1.10;1.00;;;16.20;66.70;;;;;;4993367;28;20450;-66
2021/05/09 02:17:27;;;;;;;1.70;1.02;;;16.80;67.00;;;;;;4991854;28;20030;-66
2021/05/09 02:19:52;;;;;;;1.30;1.02;;;16.30;66.70;;;;;;4993074;28;20027;-66
2021/05/09 02:22:18;;;;;;;1.00;0.90;;;16.10;66.60;;;;;;4993086;28;20058;-66
2021/05/09 02:24:44;;;;;;;0.80;0.80;;;16.10;66.60;;;;;;4993018;28;20503;-66
2021/05/09 02:27:10;;;;;;;2.25;1.23;;;16.10;66.60;;;;;;4993010;28;20030;-66
2021/05/09 02:29:36;;;;;;;1.02;0.88;;;16.10;66.60;;;;;;4975482;28;20022;-66
2021/05/09 02:32:02;;;;;;;1.85;1.30;;;16.60;66.90;;;;;;4993212;28;20368;-66
2021/05/09 02:34:28;;;;;;;1.40;0.95;;;16.20;66.80;;;;;;4992865;28;20096;-66
2021/05/09 02:36:53;;;;;;;2.17;1.00;;;16.10;66.60;;;;;;4992842;28;20022;-66
2021/05/09 02:39:19;;;;;;;1.60;1.10;;;16.20;66.70;;;;;;4992908;28;20022;-66
2021/05/09 02:41:45;;;;;;;1.10;1.00;;;16.10;66.60;;;;;;4992790;28;20041;-66
2021/05/09 02:44:10;;;;;;;1.38;0.98;;;16.10;66.60;;;;;;4993100;28;20510;-66
2021/05/09 02:46:36;;;;;;;1.00;0.90;;;16.50;66.80;;;;;;4975483;28;20058;-66
2021/05/09 02:49:03;;;;;;;1.48;1.13;;;16.10;66.70;;;;;;4993062;28;20483;-66
2021/05/09 02:51:29;;;;;;;2.05;1.23;;;16.10;66.60;;;;;;4975267;28;20030;-66
2021/05/09 02:53:55;;;;;;;1.73;1.02;;;16.10;66.60;;;;;;4992643;28;20039;-66
2021/05/09 02:56:21;;;;;;;1.58;1.10;;;16.10;66.60;;;;;;4992996;28;20022;-66
2021/05/09 02:58:46;;;;;;;1.60;1.00;;;16.00;66.50;;;;;;4992992;28;20050;-66
2021/05/09 03:01:12;;;;;;;1.20;1.00;;;16.20;66.70;;;;;;4992970;28;20049;-66
2021/05/09 03:03:38;;;;;;;1.23;1.13;;;16.20;66.70;;;;;;4992425;28;20142;-66
2021/05/09 03:06:04;;;;;;;1.55;1.00;;;16.00;66.50;;;;;;4994605;28;20022;-67
2021/05/09 03:08:34;;;;;;;1.30;1.10;;;16.20;66.60;;;;;;4995063;28;20026;-66
2021/05/09 03:10:59;;;;;;;1.15;1.00;;;16.30;66.70;;;;;;4996194;28;20074;-66
2021/05/09 03:13:25;;;;;;;1.17;1.00;;;16.10;66.60;;;;;;4995988;28;20030;-66
2021/05/09 03:15:50;;;;;;;1.38;1.27;;;16.00;66.50;;;;;;4996142;28;20027;-66
2021/05/09 03:18:16;;;;;;;1.45;1.20;;;16.20;66.60;;;;;;4995946;28;20077;-66
2021/05/09 03:20:42;;;;;;;1.02;0.70;;;16.00;66.60;;;;;;4995967;28;20105;-67
2021/05/09 03:23:07;;;;;;;1.00;0.90;;;16.90;67.00;;;;;;4996182;28;20463;-66
2021/05/09 03:25:33;;;;;;;1.00;0.88;;;16.00;66.50;;;;;;4995855;28;20153;-66
2021/05/09 03:27:59;;;;;;;1.00;0.90;;;16.00;66.50;;;;;;4995842;28;20054;-66
2021/05/09 03:30:25;;;;;;;1.20;1.10;;;16.00;66.70;;;;;;4995611;28;20041;-66
2021/05/09 03:32:53;;;;;;;1.48;1.38;;;16.00;66.50;;;;;;4995755;28;20117;-66
2021/05/09 03:35:19;;;;;;;1.95;1.15;;;15.90;66.40;;;;;;4995970;28;20034;-66
2021/05/09 03:37:45;;;;;;;1.45;0.90;;;16.00;66.50;;;;;;4978218;28;20398;-66
2021/05/09 03:40:11;;;;;;;1.08;0.85;;;16.00;66.50;;;;;;4995985;28;20022;-66
2021/05/09 03:42:36;;;;;;;1.75;1.10;;;16.10;66.50;;;;;;4995661;28;20022;-66
2021/05/09 03:45:03;;;;;;;0.90;0.82;;;17.30;67.20;;;;;;4994333;28;20014;-66
2021/05/09 03:47:28;;;;;;;1.20;1.10;;;16.10;66.60;;;;;;4995785;28;20026;-66
2021/05/09 03:49:55;;;;;;;0.90;0.90;;;16.00;66.50;;;;;;4995739;28;20065;-66
2021/05/09 03:52:21;;;;;;;1.42;1.13;;;16.00;66.50;;;;;;4977988;28;20018;-66
2021/05/09 03:54:47;;;;;;;1.48;1.10;;;16.00;66.50;;;;;;4995318;28;20672;-66
2021/05/09 03:57:12;;;;;;;1.25;1.15;;;16.10;66.50;;;;;;4995386;28;20026;-66
2021/05/09 03:59:39;;;;;;;2.90;1.00;;;15.90;66.40;;;;;;4995325;28;20034;-66
2021/05/09 04:02:04;;;;;;;0.98;0.98;;;16.00;66.40;;;;;;4995243;28;20027;-66
2021/05/09 04:04:30;;;;;;;1.70;1.42;;;16.10;66.50;;;;;;4993968;28;20115;-66
2021/05/09 04:06:56;;;;;;;1.92;1.20;;;16.00;66.40;;;;;;4995188;28;20023;-66
2021/05/09 04:09:21;;;;;;;1.67;0.98;;;16.00;66.40;;;;;;4995406;28;20022;-66
2021/05/09 04:11:47;;;;;;;1.77;1.10;;;16.00;66.50;;;;;;4995151;28;20412;-66
2021/05/09 04:14:13;;;;;;;1.05;0.95;;;15.90;66.40;;;;;;4995278;28;20038;-66
2021/05/09 04:16:38;;;;;;;1.08;0.93;;;16.00;66.40;;;;;;4994287;28;20019;-66
2021/05/09 04:19:04;;;;;;;1.02;0.95;;;16.20;66.50;;;;;;4994798;28;20515;-66
2021/05/09 04:21:30;;;;;;;1.50;0.90;;;16.00;66.50;;;;;;4994909;28;20026;-66
2021/05/09 04:23:55;;;;;;;1.60;1.10;;;16.00;66.40;;;;;;4994846;28;20071;-66
2021/05/09 04:26:21;;;;;;;0.88;0.88;;;15.90;66.40;;;;;;4995097;28;20025;-66
2021/05/09 04:28:47;;;;;;;2.42;0.93;;;15.90;66.40;;;;;;4994787;28;20034;-66
2021/05/09 04:31:12;;;;;;;1.20;0.90;;;15.90;66.40;;;;;;4993721;28;20499;-66
2021/05/09 04:33:38;;;;;;;1.15;0.80;;;15.90;66.40;;;;;;4993278;28;20038;-66
2021/05/09 04:36:04;;;;;;;1.10;0.80;;;15.90;66.40;;;;;;4993697;28;20053;-66
2021/05/09 04:38:30;;;;;;;0.98;0.80;;;16.10;66.40;;;;;;4993322;28;20031;-66
2021/05/09 04:40:56;;;;;;;1.02;0.82;;;16.10;67.10;;;;;;4994531;28;20023;-66
2021/05/09 04:43:22;;;;;;;1.08;0.98;;;16.00;66.50;;;;;;4994774;28;20037;-66
2021/05/09 04:45:53;;;;;;;1.23;0.93;;;15.90;66.40;;;;;;4994704;28;20041;-66
2021/05/09 04:48:19;;;;;;;1.33;1.17;;;16.00;66.40;;;;;;4994671;28;20022;-66
2021/05/09 04:50:44;;;;;;;2.25;1.02;;;16.00;66.40;;;;;;4994350;28;20145;-66
2021/05/09 04:53:30;;;;;;;3.28;1.25;;;15.90;66.30;;;;;;4994520;28;20113;-66
2021/05/09 04:55:57;;;;;;;1.02;0.93;;;16.00;66.00;;;;;;4994267;28;20030;-66
2021/05/09 04:58:27;;;;;;;1.83;1.05;;;15.90;66.30;;;;;;4994200;28;20022;-66
2021/05/09 05:01:01;;;;;;;1.00;1.00;;;16.00;65.90;;;;;;4994241;28;20041;-66
2021/05/09 05:03:27;;;;;;;1.33;1.08;;;16.00;65.90;;;;;;4994142;28;20041;-66
2021/05/09 05:05:53;;;;;;;1.45;0.98;;;16.00;66.30;;;;;;4994300;28;20050;-66
2021/05/09 05:08:19;;;;;;;1.45;0.90;;;15.90;66.20;;;;;;4994045;28;20022;-66
2021/05/09 05:10:45;;;;;;;1.13;1.00;;;16.00;66.20;;;;;;4994036;28;20048;-66
2021/05/09 05:13:22;;;;;;;1.33;0.82;;;15.90;66.20;;;;;;4994185;28;20025;-66
2021/05/09 05:15:49;;;;;;;1.92;1.02;;;16.40;66.50;;;;;;4976468;28;20031;-67
2021/05/09 05:18:15;;;;;;;2.08;1.05;;;15.90;66.20;;;;;;4993835;28;20033;-66
2021/05/09 05:20:41;;;;;;;1.75;0.90;;;15.90;66.10;;;;;;4976355;28;20030;-66
2021/05/09 05:23:07;;;;;;;1.38;0.95;;;15.90;66.00;;;;;;4993828;28;20077;-66
2021/05/09 05:25:33;;;;;;;2.60;1.13;;;15.90;66.10;;;;;;4994043;28;20042;-66
2021/05/09 05:28:00;;;;;;;1.15;1.00;;;15.90;66.10;;;;;;4993962;28;20033;-66
2021/05/09 05:30:26;;;;;;;2.30;1.10;;;15.90;66.00;;;;;;4976231;28;20036;-67
2021/05/09 05:32:52;;;;;;;0.95;0.68;;;16.10;66.10;;;;;;4993646;28;20105;-67
2021/05/09 05:35:17;;;;;;;2.00;1.33;;;16.60;66.40;;;;;;4993680;28;20034;-67
2021/05/09 05:37:43;;;;;;;1.10;0.90;;;16.00;66.00;;;;;;4993925;28;20024;-66
2021/05/09 05:40:09;;;;;;;0.98;0.90;;;16.00;66.00;;;;;;4993865;28;20018;-66
2021/05/09 05:42:35;;;;;;;1.30;1.15;;;16.00;66.00;;;;;;4993684;28;20050;-66
2021/05/09 05:45:00;;;;;;;1.88;1.00;;;16.10;66.00;;;;;;4993497;28;20419;-66
2021/05/09 05:47:26;;;;;;;1.67;1.45;;;15.90;65.80;;;;;;4993795;28;20022;-66
2021/05/09 05:49:55;;;;;;;2.25;1.13;;;16.30;66.10;;;;;;4993740;28;20022;-66
2021/05/09 05:52:20;;;;;;;2.65;1.40;;;16.10;65.80;;;;;;4993482;28;20037;-66
2021/05/09 05:54:46;;;;;;;1.60;1.30;;;16.10;65.70;;;;;;4993644;28;20034;-66
2021/05/09 05:57:12;;;;;;;0.80;0.75;;;15.90;65.60;;;;;;4993473;28;20509;-66
2021/05/09 05:59:37;;;;;;;2.08;1.00;;;16.00;65.50;;;;;;4992130;28;20038;-66
2021/05/09 06:02:03;;;;;;;2.33;0.73;;;16.30;65.70;;;;;;4992166;28;20073;-66
2021/05/09 06:04:28;;;;;;;1.08;1.02;;;16.10;91.50;;;;;;4993070;28;20521;-66
2021/05/09 06:06:54;;;;;;;1.33;0.82;;;16.20;65.80;;;;;;4993489;28;20097;-66
2021/05/09 06:09:19;;;;;;;1.00;0.77;;;16.10;91.30;;;;;;4993399;28;20041;-66
2021/05/09 06:11:45;;;;;;;1.20;0.93;;;16.10;65.80;;;;;;4993330;28;20080;-66
2021/05/09 06:14:11;;;;;;;1.33;1.17;;;16.10;66.20;;;;;;4993032;28;20041;-66
2021/05/09 06:16:36;;;;;;;1.02;0.98;;;16.00;66.50;;;;;;4975569;28;20109;-65
2021/05/09 06:19:02;;;;;;;1.60;1.10;;;16.00;66.60;;;;;;4993098;28;20053;-65
2021/05/09 06:21:28;;;;;;;1.55;1.08;;;16.10;66.50;;;;;;4993010;28;20029;-65
2021/05/09 06:23:53;;;;;;;1.75;1.30;;;15.90;66.40;;;;;;4993002;28;20405;-66
2021/05/09 06:26:19;;;;;;;0.95;0.80;;;16.00;66.00;;;;;;4993268;28;20113;-66
2021/05/09 06:28:45;;;;;;;0.88;0.88;;;16.20;91.80;;;;;;4993079;28;20026;-67
2021/05/09 06:31:10;;;;;;;1.10;0.98;;;16.00;66.40;;;;;;4993197;28;20479;-66
2021/05/09 06:33:36;;;;;;;2.83;1.20;;;16.30;67.00;;;;;;4991645;28;20483;-65
2021/05/09 06:36:01;;;;;;;1.10;0.82;;;16.40;67.00;;;;;;4992944;28;20060;-65
2021/05/09 06:38:27;;;;;;;1.80;0.95;;;16.10;66.90;;;;;;4992990;28;20142;-66
2021/05/09 06:40:53;;;;;;;1.27;1.00;;;16.10;67.00;;;;;;4994668;28;20045;-65
2021/05/09 06:43:19;;;;;;;2.33;1.00;;;16.10;67.00;;;;;;4997070;28;20018;-66
2021/05/09 06:45:48;;;;;;;1.52;0.90;;;16.10;66.90;;;;;;4996705;28;20103;-66
2021/05/09 06:48:13;;;;;;;2.22;0.88;;;16.20;66.60;;;;;;4979188;28;20026;-66
2021/05/09 06:50:39;;;;;;;3.83;0.90;;;16.20;66.70;;;;;;4996840;28;20494;-66
2021/05/09 06:53:07;;;;;;;7.22;1.38;;;16.10;66.60;;;;;;4996413;28;20490;-66
2021/05/09 06:55:34;;;;;;;1.48;0.80;;;16.10;66.70;;;;;;4996566;28;20125;-65
2021/05/09 06:58:01;;;;;;;3.10;1.17;;;16.20;66.60;;;;;;4996438;28;20026;-66
2021/05/09 07:00:28;;;;;;;2.60;1.17;;;16.20;66.60;;;;;;4996334;28;20027;-66
2021/05/09 07:02:53;;;;;;;1.90;0.95;;;16.30;66.60;;;;;;4996193;28;20389;-66
2021/05/09 07:05:19;;;;;;;3.35;1.17;;;16.20;66.50;;;;;;4995096;28;20109;-66
2021/05/09 07:07:53;;;;;;;2.25;1.00;;;16.30;66.40;;;;;;4996238;28;20025;-66
2021/05/09 07:10:20;;;;;;;1.70;0.98;;;16.30;66.50;;;;;;4996516;28;20069;-67
2021/05/09 07:12:46;;;;;;;1.00;0.82;;;16.50;66.40;;;;;;4996232;28;20034;-66
2021/05/09 07:15:14;;;;;;;3.75;0.77;;;16.30;66.20;;;;;;4996325;28;20069;-66
2021/05/09 07:17:42;;;;;;;1.20;1.05;;;16.50;66.20;;;;;;4996322;28;20025;-66
2021/05/09 07:20:08;;;;;;;1.70;1.00;;;16.30;66.10;;;;;;4996136;28;20169;-65
2021/05/09 07:22:39;;;;;;;1.27;1.17;;;16.50;66.10;;;;;;4996161;28;20019;-66
2021/05/09 07:25:04;;;;;;;1.05;0.77;;;16.50;66.20;;;;;;4995283;28;20045;-66
2021/05/09 07:27:30;;;;;;;1.40;1.02;;;16.60;66.20;;;;;;4996014;28;20026;-66
2021/05/09 07:29:56;;;;;;;2.05;1.00;;;16.50;66.10;;;;;;4996085;28;20476;-66
2021/05/09 07:32:21;;;;;;;1.48;0.80;;;16.70;66.20;;;;;;4996116;28;20058;-66
2021/05/09 07:34:47;;;;;;;2.00;0.90;;;16.90;66.10;;;;;;4995997;28;20046;-67
2021/05/09 07:37:12;;;;;;;1.05;0.70;;;16.70;66.00;;;;;;4995995;28;20387;-67
2021/05/09 07:39:38;;;;;;;1.15;0.75;;;16.70;65.90;;;;;;4996015;28;20030;-67
2021/05/09 07:42:04;;;;;;;2.03;1.05;;;16.60;65.80;;;;;;4994776;28;20031;-67
2021/05/09 07:44:30;;;;;;;4.00;1.27;;;16.70;65.60;;;;;;4995592;28;20023;-67
2021/05/09 07:46:56;;;;;;;3.10;1.35;;;16.60;65.40;;;;;;4995482;28;20023;-67
2021/05/09 07:49:21;;;;;;;3.13;1.05;;;16.70;65.30;;;;;;4995501;28;20027;-67
2021/05/09 07:51:47;;;;;;;0.95;0.93;;;16.70;65.20;;;;;;4994221;28;20053;-67
2021/05/09 07:54:12;;;;;;;1.95;1.35;;;16.70;65.20;;;;;;4995594;28;20038;-65
2021/05/09 07:56:38;;;;;;;6.05;1.27;;;16.60;65.00;;;;;;4995467;28;20161;-64
2021/05/09 07:59:04;;;;;;;1.42;1.00;;;16.70;65.00;;;;;;4995364;28;20034;-64
2021/05/09 08:01:30;;;;;;;2.92;1.50;;;16.70;65.10;;;;;;4995581;28;20026;-65
2021/05/09 08:03:56;;;;;;;3.90;1.15;;;16.70;65.00;;;;;;4995133;28;20054;-65
2021/05/09 08:06:22;;;;;;;3.83;1.45;;;16.90;65.00;;;;;;4995475;28;20089;-64
2021/05/09 08:08:47;;;;;;;3.95;0.93;;;16.80;64.90;;;;;;4995145;28;20090;-65
2021/05/09 08:11:13;;;;;;;2.88;1.40;;;16.80;64.80;;;;;;4995186;28;20029;-64
2021/05/09 08:13:39;;;;;;;2.10;1.38;;;16.80;64.70;;;;;;4995016;28;20027;-65
2021/05/09 08:16:05;;;;;;;5.40;1.48;;;16.90;64.80;;;;;;4995109;28;20085;-65
2021/05/09 08:18:32;;;;;;;3.30;1.38;;;16.90;64.70;;;;;;4995265;28;20010;-64
2021/05/09 08:21:00;;;;;;;2.70;1.55;;;17.00;64.70;;;;;;4995248;28;20038;-65
2021/05/09 08:23:26;;;;;;;2.97;1.35;;;17.00;64.50;;;;;;4994992;28;20033;-65
2021/05/09 08:25:51;;;;;;;3.72;0.98;;;17.10;64.40;;;;;;4995116;28;20022;-65
2021/05/09 08:28:17;;;;;;;4.90;1.65;;;17.10;64.30;;;;;;4994847;28;20081;-65
2021/05/09 08:30:43;;;;;;;3.15;1.70;;;17.50;64.90;;;;;;4977352;28;20398;-65
2021/05/09 08:33:09;;;;;;;2.55;1.30;;;17.30;64.30;;;;;;4994570;28;20030;-64
2021/05/09 08:35:35;;;;;;;3.50;1.40;;;17.00;64.00;;;;;;4993554;28;20101;-65
2021/05/09 08:38:00;;;;;;;4.15;1.70;;;17.90;64.60;;;;;;4994606;28;20683;-65
2021/05/09 08:40:26;;;;;;;1.70;1.10;;;17.20;64.00;;;;;;4994622;28;20105;-65
2021/05/09 08:42:52;;;;;;;2.40;1.15;;;17.30;63.90;;;;;;4993252;28;20053;-65
2021/05/09 08:45:19;;;;;;;2.72;1.35;;;17.30;63.80;;;;;;4994753;28;20038;-65
2021/05/09 08:47:45;;;;;;;2.88;1.30;;;17.40;63.80;;;;;;4994658;28;20098;-66
2021/05/09 08:50:19;;;;;;;3.90;1.30;;;17.90;63.90;;;;;;4994453;28;20460;-67
2021/05/09 08:52:47;;;;;;;4.28;1.40;;;17.50;63.10;;;;;;4994596;28;20022;-67
2021/05/09 08:55:16;;;;;;;4.65;1.80;;;17.50;63.50;;;;;;4994562;28;20109;-67
2021/05/09 08:57:42;;;;;;;2.78;1.33;;;18.30;63.90;;;;;;4994139;28;20583;-67
2021/05/09 09:00:10;;;;;;;4.82;1.38;;;17.70;63.70;;;;;;4994358;28;20069;-67
2021/05/09 09:02:36;;;;;;;2.45;1.40;;;17.70;63.60;;;;;;4994196;28;20437;-67
2021/05/09 09:05:02;;;;;;;5.07;1.38;;;17.60;63.40;;;;;;4993755;28;20117;-67
2021/05/09 09:07:47;;;;;;;2.90;1.20;;;17.80;63.30;;;;;;4993984;28;20056;-67
2021/05/09 09:10:33;;;;;;;3.13;1.30;;;18.20;63.60;;;;;;4994046;28;20090;-66
2021/05/09 09:13:00;;;;;;;4.32;1.27;;;17.90;63.10;;;;;;4983350;28;20034;-65
2021/05/09 09:15:47;;;;;;;4.88;1.60;;;18.20;63.20;;;;;;4993977;28;20043;-64
2021/05/09 09:18:37;;;;;;;4.85;1.60;;;18.50;63.40;;;;;;4994156;28;20080;-65
2021/05/09 09:21:28;;;;;;;1.63;1.10;;;18.10;62.40;;;;;;4993799;28;20098;-65
2021/05/09 09:24:06;;;;;;;3.28;1.75;;;18.40;62.20;;;;;;4993815;28;20018;-65
2021/05/09 09:26:48;;;;;;;4.10;1.33;;;18.60;62.60;;;;;;4993785;28;20019;-65
2021/05/09 09:29:20;;;;;;;4.25;1.17;;;18.50;62.80;;;;;;4993829;28;20038;-65
2021/05/09 09:31:51;;;;;;;2.92;1.67;;;18.50;62.50;;;;;;4993613;28;20089;-64
2021/05/09 09:34:17;;;;;;;3.40;1.40;;;18.40;62.20;;;;;;4993598;28;20511;-64
2021/05/09 09:36:42;;;;;;;1.83;1.27;;;19.20;62.50;;;;;;4993567;28;20113;-64
2021/05/09 09:39:10;;;;;;;3.70;1.30;;;18.70;61.80;;;;;;4993575;28;20110;-65
2021/05/09 09:41:49;;;;;;;2.15;1.30;;;18.90;61.70;;;;;;4993594;28;20054;-63
2021/05/09 09:44:16;;;;;;;3.20;1.23;;;18.90;61.60;;;;;;4993494;28;20030;-64
2021/05/09 09:46:52;;;;;;;1.50;1.10;;;19.00;61.40;;;;;;4993542;28;20050;-65
2021/05/09 09:49:20;;;;;;;3.08;1.10;;;19.30;61.80;;;;;;4993522;28;20490;-63
2021/05/09 09:51:51;;;;;;;3.10;1.20;;;19.20;61.70;;;;;;4993610;28;20022;-65
2021/05/09 09:54:30;;;;;;;2.00;1.00;;;19.30;61.30;;;;;;4993499;28;20034;-65
2021/05/09 09:56:56;;;;;;;2.38;1.00;;;19.60;61.60;;;;;;4993490;28;20072;-63
2021/05/09 09:59:22;;;;;;;2.63;0.90;;;19.40;60.60;;;;;;4993258;28;20026;-63
2021/05/09 10:01:47;;;;;;;5.18;1.27;;;19.50;60.80;;;;;;4993156;28;20034;-63
2021/05/09 10:04:13;;;;;;;1.92;1.20;;;20.30;61.30;;;;;;4993152;28;20054;-63
2021/05/09 10:06:39;;;;;;;2.60;1.02;;;19.60;60.20;;;;;;4993133;28;20022;-63
2021/05/09 10:09:07;;;;;;;2.50;1.38;;;19.60;60.00;;;;;;4993175;28;20391;-61
2021/05/09 10:11:33;;;;;;;2.63;1.10;;;19.90;60.40;;;;;;4993139;28;20022;-62
2021/05/09 10:13:59;;;;;;;1.42;0.90;;;19.90;60.00;;;;;;4992904;28;20030;-63
2021/05/09 10:16:28;;;;;;;1.35;0.88;;;19.80;60.40;;;;;;4995903;28;20081;-64
2021/05/09 10:18:59;;;;;;;5.10;1.07;;;19.90;60.60;;;;;;4997361;28;20035;-62
2021/05/09 10:21:35;;;;;;;3.85;1.20;;;20.10;60.80;;;;;;4997117;28;20034;-63
2021/05/09 10:24:09;;;;;;;1.52;0.77;;;19.90;60.50;;;;;;4997177;28;20030;-62
2021/05/09 10:27:02;;;;;;;1.30;1.10;;;19.90;60.70;;;;;;4997300;28;20369;-62
2021/05/09 10:29:41;;;;;;;2.65;1.20;;;19.90;60.40;;;;;;4996938;28;20019;-62
2021/05/09 10:32:29;;;;;;;3.15;1.17;;;19.80;59.90;;;;;;4979578;28;20078;-62
2021/05/09 10:34:56;;;;;;;3.28;1.10;;;19.90;60.40;;;;;;4996718;28;20471;-62
2021/05/09 10:37:40;;;;;;;1.58;1.10;;;20.00;61.20;;;;;;4996832;28;20069;-61
2021/05/09 10:40:19;;;;;;;2.45;1.00;;;19.70;60.30;;;;;;4996775;28;20045;-62
2021/05/09 10:42:46;;;;;;;1.27;1.05;;;20.00;60.50;;;;;;4996775;28;20382;-62
2021/05/09 10:45:26;;;;;;;1.40;0.80;;;19.80;61.00;;;;;;4996952;28;20022;-61
2021/05/09 10:48:19;;;;;;;2.08;0.98;;;19.80;60.20;;;;;;4996658;28;20022;-62
2021/05/09 10:50:45;;;;;;;1.02;0.80;;;19.90;60.00;;;;;;4988972;28;20046;-63
2021/05/09 10:53:33;;;;;;;2.80;0.75;;;20.20;60.30;;;;;;4979080;28;20054;-62
2021/05/09 10:56:03;;;;;;;1.55;0.90;;;20.00;59.70;;;;;;4987074;28;20047;-63
2021/05/09 10:58:48;;;;;;;3.13;1.10;;;20.00;59.50;;;;;;4996765;28;20622;-64
2021/05/09 11:01:28;;;;;;;1.45;0.93;;;20.00;59.30;;;;;;4996788;28;20394;-64
2021/05/09 11:04:26;;;;;;;2.35;0.98;;;20.00;59.30;;;;;;4996376;28;20050;-64
2021/05/09 11:06:52;;;;;;;1.45;0.73;;;19.90;59.20;;;;;;4993370;28;20030;-64
2021/05/09 11:09:35;;;;;;;2.47;1.48;;;19.80;59.40;;;;;;4996506;28;20030;-64
2021/05/09 11:12:02;;;;;;;1.77;0.93;;;19.90;59.70;;;;;;4996209;28;20058;-64
2021/05/09 11:14:28;;;;;;;2.22;1.00;;;19.80;59.40;;;;;;4996370;28;20030;-65
2021/05/09 11:16:58;;;;;;;2.42;1.17;;;19.70;59.40;;;;;;4996265;28;20019;-65
2021/05/09 11:19:32;;;;;;;3.13;1.17;;;19.80;59.70;;;;;;4996142;28;20026;-65
2021/05/09 11:21:58;;;;;;;2.35;0.88;;;19.70;59.60;;;;;;4996287;28;20109;-65
2021/05/09 11:24:26;;;;;;;1.02;0.93;;;19.70;59.70;;;;;;4996057;28;20539;-65
2021/05/09 11:26:53;;;;;;;1.23;0.93;;;19.80;59.80;;;;;;4995879;28;20042;-65
2021/05/09 11:29:21;;;;;;;2.55;0.95;;;19.60;59.90;;;;;;4995749;28;20101;-65
2021/05/09 11:31:52;;;;;;;1.63;1.00;;;19.50;59.90;;;;;;4978384;28;20026;-65
2021/05/09 11:34:19;;;;;;;1.10;0.93;;;19.60;60.10;;;;;;4995937;28;20042;-64
2021/05/09 11:36:47;;;;;;;1.65;1.27;;;19.40;60.10;;;;;;4978268;28;20026;-64
2021/05/09 11:39:41;;;;;;;1.50;1.00;;;19.60;60.30;;;;;;4978241;28;20026;-64
2021/05/09 11:42:12;;;;;;;1.15;1.00;;;19.50;60.10;;;;;;4982477;28;20538;-64
2021/05/09 11:44:44;;;;;;;3.75;0.90;;;19.30;60.40;;;;;;4995389;28;20030;-64
2021/05/09 11:47:22;;;;;;;1.88;1.00;;;19.50;60.30;;;;;;4995531;28;20475;-64
2021/05/09 11:49:48;;;;;;;1.52;0.90;;;19.40;60.20;;;;;;4995432;28;20057;-65
2021/05/09 11:52:21;;;;;;;1.73;1.00;;;19.50;60.70;;;;;;4995415;28;20027;-65
2021/05/09 11:54:53;;;;;;;1.75;1.10;;;19.50;61.40;;;;;;4995227;28;20042;-64
2021/05/09 11:57:21;;;;;;;2.85;1.20;;;19.30;60.60;;;;;;4995235;28;20030;-64
2021/05/09 11:59:50;;;;;;;2.20;1.25;;;19.40;60.70;;;;;;4995097;28;20106;-65
2021/05/09 12:02:15;;;;;;;1.10;1.00;;;20.00;61.10;;;;;;4995398;28;20037;-64
2021/05/09 12:04:50;;;;;;;1.35;0.93;;;19.30;61.20;;;;;;4994845;28;20050;-66
2021/05/09 12:07:19;;;;;;;1.42;0.85;;;19.40;60.20;;;;;;4995357;28;20030;-64
2021/05/09 12:09:57;;;;;;;1.45;0.88;;;19.40;60.60;;;;;;4995122;28;20019;-64
2021/05/09 12:12:24;;;;;;;3.00;1.02;;;19.40;60.60;;;;;;4995428;28;20113;-64
2021/05/09 12:14:53;;;;;;;1.10;0.82;;;19.30;60.40;;;;;;4995228;28;20034;-63
2021/05/09 12:17:24;;;;;;;1.15;1.05;;;19.40;60.50;;;;;;4994948;28;20022;-63
2021/05/09 12:19:50;;;;;;;1.05;0.95;;;19.30;60.50;;;;;;4995250;28;20045;-64
2021/05/09 12:22:16;;;;;;;1.42;1.23;;;19.30;60.40;;;;;;4993662;28;20022;-64
2021/05/09 12:24:56;;;;;;;1.08;0.98;;;19.90;60.70;;;;;;4994902;28;20041;-64
2021/05/09 12:27:25;;;;;;;;;;;19.40;60.60;;;;;;4995267;28;20026;-63
2021/05/09 12:29:55;;;;;;;1.10;0.80;;;19.40;60.50;;;;;;4994669;28;19905;-63
2021/05/09 12:32:24;;;;;;;;;;;19.30;60.60;;;;;;4995254;28;20046;-64
2021/05/09 12:35:09;;;;;;;1.40;0.98;;;19.40;60.20;;;;;;4994625;28;19914;-64
2021/05/09 12:37:55;;;;;;;2.00;1.23;;;19.50;60.30;;;;;;4976830;28;20029;-64
2021/05/09 12:40:25;;;;;;;2.40;1.08;;;19.50;87.90;;;;;;4994591;28;20026;-64
2021/05/09 12:43:02;;;;;;;0.93;0.90;;;19.50;60.20;;;;;;4994510;28;20110;-62
2021/05/09 12:45:55;;;;;;;1.50;0.95;;;19.50;60.20;;;;;;4994433;28;20022;-65
2021/05/09 12:48:30;;;;;;;1.15;0.80;;;19.50;60.50;;;;;;4994019;28;20045;-65
2021/05/09 12:50:56;;;;;;;1.48;1.00;;;19.70;60.80;;;;;;4976914;28;20113;-65
2021/05/09 12:53:43;;;;;;;1.63;1.17;;;19.50;60.20;;;;;;4994353;28;20101;-65